Time;durP1;ratioP1;P1;durP2;ratioP2;P2;SDS_P1;SDS_P2;PMS_P1;PMS_P2;Temp;Humidity;BMP_temperature;BMP_pressure;BME280_temperature;BME280_humidity;BME280_pressure;Samples;Min_cycle;Max_cycle;Signal;HPM_P1;HPM_P2
2021/11/18 00:01:10;;;;;;;16.58;11.15;;;25.00;99.90;;;;;;4215489;28;20051;-69
2021/11/18 00:03:17;;;;;;;21.45;11.15;;;24.90;99.90;;;;;;4214824;28;20042;-69
2021/11/18 00:05:23;;;;;;;20.73;11.48;;;24.90;99.90;;;;;;4213909;28;20563;-69
2021/11/18 00:07:27;;;;;;;20.15;11.70;;;24.80;99.90;;;;;;4196254;28;20139;-67
2021/11/18 00:09:33;;;;;;;20.45;13.32;;;24.70;99.90;;;;;;4215228;28;20028;-68
2021/11/18 00:11:39;;;;;;;24.90;14.35;;;24.80;99.90;;;;;;4207977;28;20415;-69
2021/11/18 00:13:46;;;;;;;27.52;14.60;;;24.80;99.90;;;;;;4211142;28;20048;-68
2021/11/18 00:15:51;;;;;;;22.23;12.98;;;24.80;99.90;;;;;;4197300;28;20426;-68
2021/11/18 00:17:58;;;;;;;21.58;12.45;;;24.70;99.90;;;;;;4213041;28;20040;-68
2021/11/18 00:20:05;;;;;;;19.13;11.88;;;24.60;99.90;;;;;;4213233;28;20032;-68
2021/11/18 00:22:09;;;;;;;22.58;12.00;;;24.60;99.90;;;;;;4213754;28;20567;-68
2021/11/18 00:24:15;;;;;;;24.30;12.23;;;24.70;99.90;;;;;;4223919;28;20055;-68
2021/11/18 00:26:22;;;;;;;20.58;11.50;;;24.90;99.90;;;;;;4208295;28;20541;-67
2021/11/18 00:28:26;;;;;;;23.65;11.55;;;24.90;99.90;;;;;;4213714;28;20075;-67
2021/11/18 00:30:31;;;;;;;17.00;11.20;;;25.00;99.90;;;;;;4208754;28;20036;-67
2021/11/18 00:32:38;;;;;;;18.92;12.13;;;24.90;99.90;;;;;;4192072;28;20082;-67
2021/11/18 00:34:43;;;;;;;20.05;11.65;;;25.00;99.90;;;;;;4213672;28;20052;-67
2021/11/18 00:36:47;;;;;;;23.75;11.75;;;25.00;99.90;;;;;;4213702;28;20375;-67
2021/11/18 00:38:53;;;;;;;22.17;11.18;;;24.90;99.90;;;;;;4212269;28;20127;-67
2021/11/18 00:40:57;;;;;;;22.38;11.05;;;25.10;99.90;;;;;;4212267;28;20105;-67
2021/11/18 00:43:03;;;;;;;23.30;12.00;;;25.10;99.90;;;;;;4195015;28;20049;-67
2021/11/18 00:45:08;;;;;;;19.42;11.43;;;25.20;99.90;;;;;;4212337;28;20422;-67
2021/11/18 00:47:13;;;;;;;23.55;12.70;;;25.10;99.90;;;;;;4195729;28;20047;-68
2021/11/18 00:49:17;;;;;;;21.60;12.23;;;25.00;99.90;;;;;;4213387;28;20448;-68
2021/11/18 00:51:22;;;;;;;32.53;12.63;;;25.10;99.90;;;;;;4213178;28;20367;-68
2021/11/18 00:53:27;;;;;;;23.00;12.38;;;25.30;99.90;;;;;;4213458;28;20089;-67
2021/11/18 00:55:32;;;;;;;22.98;14.07;;;25.40;99.90;;;;;;4211903;28;20052;-68
2021/11/18 00:57:38;;;;;;;27.83;14.02;;;25.50;99.90;;;;;;4212332;28;20062;-67
2021/11/18 00:59:46;;;;;;;28.02;14.45;;;25.50;99.90;;;;;;4221592;28;20097;-68
2021/11/18 01:01:52;;;;;;;25.92;13.68;;;25.50;99.90;;;;;;4212476;28;20127;-67
2021/11/18 01:03:58;;;;;;;102.57;17.48;;;25.40;99.90;;;;;;4212122;28;20047;-67
2021/11/18 01:06:04;;;;;;;22.70;13.30;;;25.20;99.90;;;;;;4212573;28;20071;-67
2021/11/18 01:08:10;;;;;;;17.52;12.02;;;25.20;99.90;;;;;;4212233;28;20043;-67
2021/11/18 01:10:15;;;;;;;28.27;13.32;;;25.40;99.90;;;;;;4211696;28;20435;-68
2021/11/18 01:12:19;;;;;;;21.42;11.43;;;25.50;99.90;;;;;;4210900;28;20505;-68
2021/11/18 01:14:25;;;;;;;18.25;11.23;;;25.40;99.90;;;;;;4212817;28;20151;-66
2021/11/18 01:16:32;;;;;;;19.05;12.20;;;25.40;99.90;;;;;;4194909;28;20519;-67
2021/11/18 01:18:39;;;;;;;24.83;11.63;;;25.50;99.90;;;;;;4210826;28;20644;-67
2021/11/18 01:20:44;;;;;;;17.58;11.23;;;25.40;99.90;;;;;;4211573;28;20572;-68
2021/11/18 01:22:51;;;;;;;19.83;11.30;;;25.40;99.90;;;;;;4208514;28;20032;-68
2021/11/18 01:25:02;;;;;;;16.75;10.50;;;25.40;99.90;;;;;;4210993;28;20495;-66
2021/11/18 01:27:15;;;;;;;22.02;11.75;;;25.40;99.90;;;;;;4207245;28;20052;-67
2021/11/18 01:29:20;;;;;;;19.73;12.45;;;25.30;99.90;;;;;;4212043;28;20055;-67
2021/11/18 01:31:24;;;;;;;22.45;12.00;;;25.40;99.90;;;;;;4192482;28;20411;-66
2021/11/18 01:33:34;;;;;;;17.33;11.00;;;25.60;99.90;;;;;;4210912;28;20063;-66
2021/11/18 01:35:40;;;;;;;17.40;10.93;;;25.50;99.90;;;;;;4194546;28;20052;-67
2021/11/18 01:37:44;;;;;;;19.95;10.18;;;25.50;99.90;;;;;;4177996;28;20080;-67
2021/11/18 01:39:50;;;;;;;16.25;9.68;;;25.60;99.90;;;;;;4209767;28;20488;-68
2021/11/18 01:41:55;;;;;;;14.38;8.90;;;25.60;99.90;;;;;;4209446;28;20425;-67
2021/11/18 01:44:03;;;;;;;14.27;8.45;;;25.60;99.90;;;;;;4193995;28;20044;-69
2021/11/18 01:46:12;;;;;;;14.68;8.70;;;25.60;99.90;;;;;;4211014;28;20039;-68
2021/11/18 01:48:17;;;;;;;13.45;8.45;;;25.80;99.90;;;;;;4209690;28;20150;-69
2021/11/18 01:50:26;;;;;;;14.40;7.05;;;25.90;99.90;;;;;;4210930;28;20042;-67
2021/11/18 01:52:31;;;;;;;14.98;7.38;;;26.00;99.90;;;;;;4194277;28;20044;-67
2021/11/18 01:54:36;;;;;;;13.65;7.30;;;26.00;99.90;;;;;;4210593;28;20047;-67
2021/11/18 01:56:43;;;;;;;11.20;6.65;;;25.90;99.90;;;;;;4211358;28;20122;-67
2021/11/18 01:58:54;;;;;;;14.82;7.55;;;26.10;99.90;;;;;;4194499;28;20514;-68
2021/11/18 02:01:10;;;;;;;15.18;6.50;;;26.20;99.90;;;;;;4203838;28;20043;-66
2021/11/18 02:03:15;;;;;;;11.63;6.55;;;26.40;99.70;;;;;;4193399;28;20079;-67
2021/11/18 02:05:35;;;;;;;17.70;6.13;;;26.50;98.90;;;;;;4196343;28;20482;-68
2021/11/18 02:07:42;;;;;;;9.68;6.20;;;26.50;98.90;;;;;;4206003;28;20054;-67
2021/11/18 02:09:52;;;;;;;11.90;6.63;;;26.50;99.00;;;;;;4210851;28;20069;-68
2021/11/18 02:12:11;;;;;;;12.05;6.05;;;26.60;98.60;;;;;;4206117;28;20135;-68
2021/11/18 02:14:17;;;;;;;12.90;5.82;;;26.60;98.20;;;;;;4210527;28;20044;-67
2021/11/18 02:16:23;;;;;;;15.00;6.07;;;26.70;98.00;;;;;;4193937;28;20074;-68
2021/11/18 02:18:34;;;;;;;9.85;5.82;;;26.80;97.80;;;;;;4210642;28;20032;-68
2021/11/18 02:20:41;;;;;;;8.82;5.30;;;26.80;97.50;;;;;;4195313;28;20171;-67
2021/11/18 02:22:47;;;;;;;9.73;5.70;;;26.80;97.20;;;;;;4208659;28;20044;-67
2021/11/18 02:25:04;;;;;;;10.50;5.82;;;26.70;97.00;;;;;;4211134;28;20499;-67
2021/11/18 02:27:13;;;;;;;10.93;6.15;;;26.50;97.30;;;;;;4193026;28;20517;-67
2021/11/18 02:29:19;;;;;;;13.25;6.03;;;26.50;97.80;;;;;;4211173;28;20044;-68
2021/11/18 02:31:33;;;;;;;10.30;5.50;;;26.60;97.60;;;;;;4200355;28;20048;-69
2021/11/18 02:33:39;;;;;;;10.02;5.70;;;26.70;97.30;;;;;;4194313;28;20106;-67
2021/11/18 02:35:47;;;;;;;12.00;5.70;;;26.80;97.10;;;;;;4210736;28;20056;-67
2021/11/18 02:37:53;;;;;;;9.50;5.55;;;26.90;96.90;;;;;;4191955;28;20139;-67
2021/11/18 02:39:57;;;;;;;8.05;4.93;;;26.90;96.70;;;;;;4194256;28;20396;-66
2021/11/18 02:42:03;;;;;;;11.77;4.75;;;26.90;96.20;;;;;;4208414;28;20399;-67
2021/11/18 02:44:08;;;;;;;10.25;4.88;;;26.90;96.50;;;;;;4207347;28;20047;-67
2021/11/18 02:46:12;;;;;;;6.65;4.28;;;27.00;96.30;;;;;;4203177;28;20043;-66
2021/11/18 02:48:17;;;;;;;8.35;4.32;;;27.20;96.20;;;;;;4211797;28;20032;-67
2021/11/18 02:50:25;;;;;;;9.93;4.95;;;27.10;96.10;;;;;;4210866;28;20098;-69
2021/11/18 02:52:31;;;;;;;8.90;4.80;;;27.20;95.70;;;;;;4208830;28;20044;-67
2021/11/18 02:54:36;;;;;;;6.70;4.03;;;27.30;95.90;;;;;;4209435;28;20044;-67
2021/11/18 02:56:41;;;;;;;4.15;3.10;;;27.40;95.80;;;;;;4212153;28;20086;-66
2021/11/18 02:58:46;;;;;;;5.75;2.95;;;27.40;95.50;;;;;;4210023;28;20047;-67
2021/11/18 03:01:08;;;;;;;5.85;2.78;;;27.30;94.80;;;;;;4210622;28;20028;-66
2021/11/18 03:03:13;;;;;;;3.95;2.80;;;27.30;95.00;;;;;;4205955;28;20059;-67
2021/11/18 03:05:19;;;;;;;3.25;2.80;;;27.40;95.00;;;;;;4210275;28;20453;-67
2021/11/18 03:07:25;;;;;;;7.57;3.10;;;27.40;95.10;;;;;;4177491;28;20574;-67
2021/11/18 03:09:30;;;;;;;3.25;1.95;;;27.40;94.80;;;;;;4185557;28;20040;-67
2021/11/18 03:11:45;;;;;;;3.72;1.88;;;27.50;94.50;;;;;;4209190;28;20502;-67
2021/11/18 03:13:51;;;;;;;3.17;1.90;;;27.50;94.30;;;;;;4209887;28;20044;-67
2021/11/18 03:15:57;;;;;;;3.72;2.00;;;27.40;94.30;;;;;;4210575;28;20503;-67
2021/11/18 03:18:02;;;;;;;2.55;1.80;;;27.50;94.20;;;;;;4193291;28;20394;-67
2021/11/18 03:20:15;;;;;;;4.82;2.00;;;27.50;94.20;;;;;;4209772;28;20434;-66
2021/11/18 03:22:20;;;;;;;4.40;2.10;;;27.60;94.20;;;;;;4208828;28;20659;-67
2021/11/18 03:24:25;;;;;;;6.40;2.05;;;27.70;94.00;;;;;;4211497;28;20034;-67
2021/11/18 03:26:31;;;;;;;4.05;1.95;;;27.80;93.80;;;;;;4190419;28;20055;-68
2021/11/18 03:28:47;;;;;;;5.15;2.08;;;27.80;93.40;;;;;;4208651;28;20606;-68
2021/11/18 03:30:52;;;;;;;4.03;1.90;;;27.90;93.60;;;;;;4210432;28;20052;-68
2021/11/18 03:32:58;;;;;;;3.13;1.77;;;28.00;93.40;;;;;;4209838;28;20039;-67
2021/11/18 03:35:03;;;;;;;3.95;1.80;;;28.20;93.40;;;;;;4203218;28;20083;-67
2021/11/18 03:37:08;;;;;;;3.80;2.03;;;28.30;93.00;;;;;;4211002;28;20046;-67
2021/11/18 03:39:13;;;;;;;7.05;2.20;;;28.40;93.00;;;;;;4193273;28;20044;-67
2021/11/18 03:41:22;;;;;;;5.28;1.88;;;28.40;92.80;;;;;;4208764;28;20131;-67
2021/11/18 03:43:27;;;;;;;3.55;2.00;;;28.30;92.50;;;;;;4177568;28;20116;-67
2021/11/18 03:45:37;;;;;;;3.05;1.90;;;28.30;92.80;;;;;;4210874;28;20510;-67
2021/11/18 03:47:42;;;;;;;1.85;1.20;;;28.50;92.70;;;;;;4208279;28;20075;-67
2021/11/18 03:49:46;;;;;;;2.60;1.60;;;28.50;91.60;;;;;;4208360;28;20139;-67
2021/11/18 03:51:52;;;;;;;3.13;1.67;;;28.50;91.30;;;;;;4207384;28;20036;-67
2021/11/18 03:54:03;;;;;;;5.88;1.80;;;28.60;91.50;;;;;;4177534;28;20056;-67
2021/11/18 03:56:13;;;;;;;7.22;1.90;;;28.60;91.50;;;;;;4207074;28;20052;-67
2021/11/18 03:58:18;;;;;;;2.75;1.65;;;28.70;91.00;;;;;;4193253;28;20163;-67
2021/11/18 04:00:28;;;;;;;2.13;1.50;;;28.60;91.30;;;;;;4209216;28;20036;-67
2021/11/18 04:02:33;;;;;;;3.35;1.52;;;28.90;91.30;;;;;;4191901;28;20079;-67
2021/11/18 04:04:45;;;;;;;3.45;1.95;;;29.00;91.00;;;;;;4209647;28;20040;-67
2021/11/18 04:06:50;;;;;;;2.47;1.48;;;29.10;90.70;;;;;;4202962;28;20040;-67
2021/11/18 04:08:54;;;;;;;4.90;1.73;;;29.20;90.40;;;;;;4209277;28;20102;-69
2021/11/18 04:11:00;;;;;;;1.70;1.30;;;29.30;90.30;;;;;;4207736;28;20521;-68
2021/11/18 04:13:05;;;;;;;4.65;2.00;;;29.40;90.10;;;;;;4192453;28;20048;-68
2021/11/18 04:15:10;;;;;;;3.35;2.00;;;29.30;90.40;;;;;;4190851;28;20162;-67
2021/11/18 04:17:16;;;;;;;5.68;1.40;;;29.20;90.50;;;;;;4209042;28;20126;-67
2021/11/18 04:19:22;;;;;;;2.38;1.55;;;29.10;90.40;;;;;;4192136;28;20048;-67
2021/11/18 04:21:31;;;;;;;4.93;1.83;;;29.00;90.60;;;;;;4207887;28;20097;-68
2021/11/18 04:23:39;;;;;;;4.10;1.48;;;29.00;91.00;;;;;;4209287;28;20458;-68
2021/11/18 04:25:46;;;;;;;3.65;1.77;;;29.10;90.80;;;;;;4206724;28;20050;-68
2021/11/18 04:27:50;;;;;;;3.97;1.85;;;29.20;90.40;;;;;;4207923;28;20039;-67
2021/11/18 04:29:55;;;;;;;4.03;2.00;;;29.20;90.60;;;;;;4190115;28;20074;-67
2021/11/18 04:32:06;;;;;;;3.22;1.65;;;29.30;90.90;;;;;;4209152;28;20043;-67
2021/11/18 04:34:11;;;;;;;12.73;1.83;;;29.40;90.60;;;;;;4172940;28;20091;-67
2021/11/18 04:36:16;;;;;;;1.77;1.23;;;29.50;90.60;;;;;;4211893;28;20043;-68
2021/11/18 04:38:21;;;;;;;2.67;1.50;;;29.40;89.60;;;;;;4210264;28;20595;-68
2021/11/18 04:40:26;;;;;;;4.07;1.35;;;29.40;90.10;;;;;;4210733;28;20152;-66
2021/11/18 04:42:31;;;;;;;5.32;1.45;;;29.50;89.80;;;;;;4214026;28;20310;-68
2021/11/18 04:44:47;;;;;;;2.85;1.35;;;29.50;89.30;;;;;;4208376;28;20052;-67
2021/11/18 04:46:53;;;;;;;5.53;1.60;;;29.50;89.00;;;;;;4209944;28;20044;-67
2021/11/18 04:48:59;;;;;;;3.95;1.70;;;29.60;89.50;;;;;;4194075;28;20055;-68
2021/11/18 04:51:05;;;;;;;5.07;1.80;;;29.60;90.50;;;;;;4177121;28;20041;-68
2021/11/18 04:53:10;;;;;;;3.72;2.10;;;29.60;90.60;;;;;;4210248;28;20281;-68
2021/11/18 04:55:19;;;;;;;4.22;1.80;;;29.70;90.80;;;;;;4193665;28;20036;-67
2021/11/18 04:57:28;;;;;;;2.67;1.63;;;29.70;90.70;;;;;;4177633;28;20115;-67
2021/11/18 04:59:33;;;;;;;4.57;2.28;;;29.70;90.50;;;;;;4209756;28;20524;-67
2021/11/18 05:01:38;;;;;;;6.50;2.65;;;29.80;90.60;;;;;;4190195;28;20553;-68
2021/11/18 05:03:43;;;;;;;3.65;2.00;;;29.80;90.70;;;;;;4207432;28;20514;-68
2021/11/18 05:05:48;;;;;;;7.90;2.42;;;29.80;90.70;;;;;;4207241;28;20131;-68
2021/11/18 05:07:53;;;;;;;9.88;2.40;;;30.00;90.80;;;;;;4205272;28;20083;-68
2021/11/18 05:09:58;;;;;;;4.72;1.83;;;30.20;90.40;;;;;;4208697;28;20071;-68
2021/11/18 05:12:03;;;;;;;2.95;1.92;;;30.30;89.90;;;;;;4207752;28;20527;-68
2021/11/18 05:14:08;;;;;;;2.20;1.67;;;30.30;89.80;;;;;;4174724;28;20492;-68
2021/11/18 05:16:16;;;;;;;3.15;1.85;;;30.30;89.10;;;;;;4208101;28;20106;-69
2021/11/18 05:18:20;;;;;;;5.85;2.85;;;30.30;89.80;;;;;;4191132;28;20078;-69
2021/11/18 05:20:26;;;;;;;7.22;2.25;;;30.30;89.30;;;;;;4191525;28;20135;-67
2021/11/18 05:22:30;;;;;;;5.10;2.10;;;30.30;88.60;;;;;;4208014;28;20043;-68
2021/11/18 05:24:35;;;;;;;3.13;1.85;;;30.30;88.50;;;;;;4192298;28;20435;-67
2021/11/18 05:26:40;;;;;;;3.38;1.75;;;30.40;89.00;;;;;;4207554;28;20040;-68
2021/11/18 05:28:46;;;;;;;3.33;1.77;;;30.50;88.00;;;;;;4192182;28;20464;-68
2021/11/18 05:30:50;;;;;;;5.13;1.90;;;30.40;87.20;;;;;;4191292;28;20048;-69
2021/11/18 05:32:59;;;;;;;2.35;1.70;;;30.40;88.20;;;;;;4189666;28;20049;-69
2021/11/18 05:35:05;;;;;;;5.55;1.80;;;30.30;88.30;;;;;;4202213;28;20449;-68
2021/11/18 05:37:09;;;;;;;9.73;2.00;;;30.30;87.80;;;;;;4201502;28;20075;-67
2021/11/18 05:39:14;;;;;;;5.95;1.80;;;30.20;87.70;;;;;;4189087;28;20653;-68
2021/11/18 05:41:27;;;;;;;3.53;1.90;;;30.10;88.00;;;;;;4192153;28;20448;-66
2021/11/18 05:43:32;;;;;;;6.13;1.70;;;30.10;87.70;;;;;;4207915;28;20043;-68
2021/11/18 05:45:37;;;;;;;4.75;1.95;;;30.10;88.30;;;;;;4209571;28;20086;-68
2021/11/18 05:47:49;;;;;;;2.70;1.73;;;30.20;88.50;;;;;;4192958;28;20544;-68
2021/11/18 05:49:53;;;;;;;4.55;2.20;;;30.30;88.80;;;;;;4207714;28;20040;-68
2021/11/18 05:51:59;;;;;;;5.65;2.25;;;30.40;88.60;;;;;;4191581;28;20036;-66
2021/11/18 05:54:08;;;;;;;2.92;1.90;;;30.40;87.70;;;;;;4208526;28;20052;-67
2021/11/18 05:56:14;;;;;;;3.72;1.85;;;30.50;88.00;;;;;;4207825;28;20064;-70
2021/11/18 05:58:19;;;;;;;8.00;1.90;;;30.50;88.10;;;;;;4173637;28;20054;-73
2021/11/18 06:00:26;;;;;;;2.97;1.90;;;30.50;87.60;;;;;;4190682;28;20066;-71
2021/11/18 06:02:31;;;;;;;4.13;2.10;;;30.50;87.90;;;;;;4205553;28;20121;-71
2021/11/18 06:04:37;;;;;;;5.63;2.35;;;30.60;87.80;;;;;;4178186;28;20055;-69
2021/11/18 06:06:43;;;;;;;5.38;2.40;;;30.60;87.20;;;;;;4201908;28;20055;-69
2021/11/18 06:08:48;;;;;;;3.88;2.33;;;30.50;87.30;;;;;;4207839;28;20048;-69
2021/11/18 06:10:53;;;;;;;3.47;2.10;;;30.40;87.40;;;;;;4207750;28;20048;-69
2021/11/18 06:12:58;;;;;;;3.83;2.00;;;30.40;87.60;;;;;;4192703;28;20536;-69
2021/11/18 06:15:11;;;;;;;;;;;30.50;87.80;;;;;;4207211;28;20399;-69
2021/11/18 06:17:16;;;;;;;4.65;2.50;;;30.60;87.70;;;;;;4208065;28;20286;-69
2021/11/18 06:19:22;;;;;;;4.72;2.10;;;30.60;87.90;;;;;;4207743;28;20052;-68
2021/11/18 06:21:27;;;;;;;3.95;2.40;;;30.70;86.30;;;;;;4191265;28;20463;-69
2021/11/18 06:23:32;;;;;;;5.05;1.92;;;30.70;86.80;;;;;;4189300;28;20052;-68
2021/11/18 06:25:37;;;;;;;8.57;2.38;;;30.70;86.70;;;;;;4208221;28;20044;-68
2021/11/18 06:27:43;;;;;;;12.45;2.90;;;30.70;87.60;;;;;;4209946;28;20055;-69
2021/11/18 06:29:49;;;;;;;10.68;2.80;;;30.80;87.10;;;;;;4208578;28;20555;-69
2021/11/18 06:31:54;;;;;;;4.50;2.00;;;30.90;86.70;;;;;;4190859;28;20086;-68
2021/11/18 06:33:59;;;;;;;6.40;2.20;;;30.90;85.00;;;;;;4207475;28;20571;-68
2021/11/18 06:36:05;;;;;;;5.63;2.00;;;30.90;85.60;;;;;;4191379;28;20620;-68
2021/11/18 06:38:12;;;;;;;3.60;1.80;;;30.90;85.60;;;;;;4205284;28;20199;-68
2021/11/18 06:40:17;;;;;;;3.97;2.10;;;31.00;86.60;;;;;;4190813;28;20060;-68
2021/11/18 06:42:21;;;;;;;6.50;2.22;;;31.00;86.90;;;;;;4189679;28;20078;-67
2021/11/18 06:44:33;;;;;;;6.85;2.00;;;31.00;86.90;;;;;;4176560;28;20041;-68
2021/11/18 06:46:38;;;;;;;5.35;2.15;;;31.10;86.40;;;;;;4207234;28;20101;-68
2021/11/18 06:48:42;;;;;;;5.35;2.17;;;31.00;86.70;;;;;;4191823;28;20546;-68
2021/11/18 06:50:49;;;;;;;8.93;2.25;;;31.00;86.10;;;;;;4207492;28;20510;-68
2021/11/18 06:52:54;;;;;;;46.17;4.88;;;30.90;86.20;;;;;;4188471;28;20372;-68
2021/11/18 06:54:59;;;;;;;39.40;5.60;;;31.00;86.10;;;;;;4205007;28;20052;-68
2021/11/18 06:57:04;;;;;;;11.43;2.42;;;31.10;85.50;;;;;;4197939;28;20052;-68
2021/11/18 06:59:10;;;;;;;4.95;2.00;;;31.10;85.20;;;;;;4191867;28;20526;-67
2021/11/18 07:01:15;;;;;;;4.97;2.08;;;31.00;85.20;;;;;;4198143;28;20144;-68
2021/11/18 07:03:21;;;;;;;6.47;1.77;;;31.00;85.30;;;;;;4199176;28;20572;-68
2021/11/18 07:05:25;;;;;;;5.68;2.00;;;31.00;85.80;;;;;;4205786;28;20039;-67
2021/11/18 07:07:30;;;;;;;7.28;1.95;;;31.10;85.60;;;;;;4204810;28;20610;-67
2021/11/18 07:10:01;;;;;;;4.63;1.90;;;31.10;85.50;;;;;;4206446;28;20286;-68
2021/11/18 07:12:16;;;;;;;5.72;2.35;;;31.00;85.20;;;;;;4206978;28;20393;-69
2021/11/18 07:14:23;;;;;;;7.47;2.13;;;30.90;85.00;;;;;;4190415;28;20079;-68
2021/11/18 07:16:28;;;;;;;4.88;2.00;;;30.70;85.60;;;;;;4190190;28;20281;-68
2021/11/18 07:18:32;;;;;;;5.70;2.25;;;30.70;85.70;;;;;;4189888;28;20052;-68
2021/11/18 07:20:39;;;;;;;11.13;2.33;;;30.70;85.80;;;;;;4206237;28;20060;-68
2021/11/18 07:22:44;;;;;;;7.97;2.50;;;30.60;85.80;;;;;;4207167;28;20062;-68
2021/11/18 07:24:57;;;;;;;4.28;2.03;;;30.60;85.90;;;;;;4206935;28;20052;-68
2021/11/18 07:27:02;;;;;;;7.13;3.38;;;30.60;86.00;;;;;;4191099;28;20465;-68
2021/11/18 07:29:08;;;;;;;77.05;50.28;;;30.60;86.00;;;;;;4191969;28;20063;-68
2021/11/18 07:31:13;;;;;;;41.03;25.80;;;30.70;86.60;;;;;;4208345;28;20055;-68
2021/11/18 07:33:25;;;;;;;19.95;12.80;;;30.70;85.80;;;;;;4192453;28;20501;-67
2021/11/18 07:35:30;;;;;;;13.73;7.93;;;30.80;86.30;;;;;;4208251;28;20078;-67
2021/11/18 07:37:34;;;;;;;8.75;4.80;;;30.90;87.00;;;;;;4191460;28;20441;-68
2021/11/18 07:39:39;;;;;;;6.82;2.50;;;30.80;86.60;;;;;;4191173;28;20056;-68
2021/11/18 07:41:44;;;;;;;4.13;2.45;;;30.80;86.20;;;;;;4204568;28;20060;-67
2021/11/18 07:44:01;;;;;;;4.35;1.90;;;30.90;86.30;;;;;;4207572;28;20044;-68
2021/11/18 07:46:37;;;;;;;4.10;2.17;;;30.90;85.60;;;;;;4207826;28;20071;-68
2021/11/18 07:48:47;;;;;;;7.38;2.25;;;31.00;85.60;;;;;;4205001;28;20415;-67
2021/11/18 07:50:58;;;;;;;4.25;2.00;;;30.90;85.60;;;;;;4206589;28;20350;-67
2021/11/18 07:53:03;;;;;;;3.20;2.13;;;31.00;85.90;;;;;;4190455;28;20516;-69
2021/11/18 07:55:09;;;;;;;10.82;3.13;;;31.00;86.10;;;;;;4205139;28;20133;-68
2021/11/18 07:57:14;;;;;;;8.82;3.10;;;31.00;86.30;;;;;;4191032;28;20056;-68
2021/11/18 07:59:19;;;;;;;7.28;4.32;;;30.90;86.30;;;;;;4208615;28;20120;-66
2021/11/18 08:01:26;;;;;;;6.75;3.72;;;30.90;86.30;;;;;;4191480;28;20095;-66
2021/11/18 08:03:31;;;;;;;5.18;2.95;;;30.90;86.20;;;;;;4208884;28;20040;-66
2021/11/18 08:05:48;;;;;;;4.80;2.50;;;30.90;86.10;;;;;;4206819;28;20040;-69
2021/11/18 08:07:56;;;;;;;5.93;2.92;;;30.90;86.70;;;;;;4206744;28;20184;-70
2021/11/18 08:10:01;;;;;;;10.07;2.55;;;30.90;86.90;;;;;;4209047;28;20118;-69
2021/11/18 08:12:07;;;;;;;5.40;2.47;;;30.90;87.20;;;;;;4208477;28;20044;-68
2021/11/18 08:14:14;;;;;;;5.20;2.30;;;30.90;87.50;;;;;;4208474;28;20109;-68
2021/11/18 08:16:22;;;;;;;7.30;2.47;;;30.90;87.60;;;;;;4207193;28;20801;-68
2021/11/18 08:18:32;;;;;;;4.20;2.25;;;30.90;87.50;;;;;;4208964;28;20097;-68
2021/11/18 08:20:37;;;;;;;4.15;2.13;;;30.90;87.50;;;;;;4208762;28;20049;-68
2021/11/18 08:22:43;;;;;;;3.38;1.98;;;30.90;88.20;;;;;;4207013;28;20047;-68
2021/11/18 08:24:49;;;;;;;5.55;2.30;;;30.90;87.80;;;;;;4208535;28;20444;-68
2021/11/18 08:26:54;;;;;;;6.72;1.98;;;30.90;87.90;;;;;;4201434;28;20584;-67
2021/11/18 08:28:59;;;;;;;3.28;2.08;;;30.80;87.80;;;;;;4192171;28;20522;-68
2021/11/18 08:31:04;;;;;;;3.28;1.80;;;30.80;87.90;;;;;;4208958;28;20043;-68
2021/11/18 08:33:18;;;;;;;7.15;2.20;;;30.80;88.00;;;;;;4208682;28;20066;-68
2021/11/18 08:35:30;;;;;;;2.72;1.80;;;30.80;87.90;;;;;;4192635;28;20055;-68
2021/11/18 08:37:35;;;;;;;7.75;2.03;;;30.80;88.10;;;;;;4208139;28;20475;-68
2021/11/18 08:39:41;;;;;;;6.55;1.75;;;30.80;87.90;;;;;;4206792;28;20051;-68
2021/11/18 08:41:55;;;;;;;4.20;1.77;;;30.80;87.90;;;;;;4190541;28;20437;-68
2021/11/18 08:44:01;;;;;;;8.20;2.00;;;30.80;88.10;;;;;;4207346;28;20052;-68
2021/11/18 08:46:07;;;;;;;8.07;2.47;;;30.90;88.30;;;;;;4208706;28;20093;-68
2021/11/18 08:48:11;;;;;;;5.38;1.83;;;30.80;88.40;;;;;;4209009;28;20048;-68
2021/11/18 08:50:18;;;;;;;6.53;3.13;;;30.80;88.50;;;;;;4192779;28;20048;-68
2021/11/18 08:52:26;;;;;;;4.75;2.80;;;30.80;87.90;;;;;;4193047;28;20052;-68
2021/11/18 08:54:33;;;;;;;3.67;2.20;;;30.70;87.90;;;;;;4208758;28;20097;-69
2021/11/18 08:56:39;;;;;;;7.72;2.30;;;30.70;87.90;;;;;;4208781;28;20109;-68
2021/11/18 08:58:45;;;;;;;18.33;2.75;;;30.70;87.90;;;;;;4192736;28;20036;-68
2021/11/18 09:00:57;;;;;;;11.27;4.95;;;30.80;87.70;;;;;;4193350;28;20498;-69
2021/11/18 09:03:08;;;;;;;24.95;17.75;;;30.70;87.80;;;;;;4193923;28;20784;-69
2021/11/18 09:05:15;;;;;;;12.50;10.38;;;30.70;88.00;;;;;;4209216;28;20284;-69
2021/11/18 09:07:21;;;;;;;15.98;7.07;;;30.70;88.90;;;;;;4192616;28;20491;-69
2021/11/18 09:09:26;;;;;;;16.40;7.50;;;30.60;88.50;;;;;;4209180;28;20143;-69
2021/11/18 09:11:32;;;;;;;11.57;8.18;;;30.60;88.90;;;;;;4192660;28;20061;-66
2021/11/18 09:13:37;;;;;;;20.77;14.40;;;30.60;88.70;;;;;;4201472;28;20076;-66
2021/11/18 09:15:41;;;;;;;137.88;109.53;;;30.60;89.30;;;;;;4206469;28;20052;-67
2021/11/18 09:17:47;;;;;;;109.68;81.00;;;30.60;89.70;;;;;;4207509;28;20068;-67
2021/11/18 09:20:04;;;;;;;113.90;82.90;;;30.60;89.40;;;;;;4208562;28;20077;-67
2021/11/18 09:22:12;;;;;;;89.63;70.88;;;30.50;89.50;;;;;;4192984;28;20053;-68
2021/11/18 09:24:18;;;;;;;135.50;107.85;;;30.60;89.40;;;;;;4190868;28;20479;-68
2021/11/18 09:26:23;;;;;;;107.20;86.28;;;30.50;89.50;;;;;;4191868;28;20042;-68
2021/11/18 09:28:28;;;;;;;65.88;48.97;;;30.60;89.60;;;;;;4192807;28;20070;-68
2021/11/18 09:30:52;;;;;;;46.22;27.92;;;30.50;89.50;;;;;;4202450;28;20141;-68
2021/11/18 09:32:58;;;;;;;44.80;29.05;;;30.40;89.70;;;;;;4206693;28;20119;-68
2021/11/18 09:35:08;;;;;;;13.45;6.22;;;30.40;90.30;;;;;;4192913;28;20566;-68
2021/11/18 09:37:13;;;;;;;14.93;9.48;;;30.30;90.40;;;;;;4192867;28;20453;-68
2021/11/18 09:39:18;;;;;;;8.50;4.30;;;30.30;90.30;;;;;;4192534;28;20529;-68
2021/11/18 09:41:51;;;;;;;13.70;7.30;;;30.30;90.30;;;;;;4208353;28;20040;-68
2021/11/18 09:44:23;;;;;;;18.85;10.50;;;30.30;90.40;;;;;;4209112;28;20089;-67
2021/11/18 09:46:52;;;;;;;15.68;8.27;;;30.30;90.50;;;;;;4209953;28;20135;-67
2021/11/18 09:49:15;;;;;;;68.82;39.53;;;30.30;90.40;;;;;;4206807;28;20052;-67
2021/11/18 09:51:43;;;;;;;77.93;45.63;;;30.30;90.60;;;;;;4206928;28;20047;-67
2021/11/18 09:54:10;;;;;;;80.97;48.15;;;30.30;90.70;;;;;;4206041;28;20078;-67
2021/11/18 09:56:20;;;;;;;114.65;65.90;;;30.20;90.80;;;;;;4208240;28;20099;-68
2021/11/18 09:58:38;;;;;;;183.50;104.63;;;30.20;90.70;;;;;;4192097;28;20525;-67
2021/11/18 10:01:04;;;;;;;164.50;98.18;;;30.30;90.90;;;;;;4204175;28;20121;-67
2021/11/18 10:03:15;;;;;;;148.40;83.60;;;30.20;90.90;;;;;;4190665;28;20064;-67
2021/11/18 10:05:24;;;;;;;68.38;40.45;;;30.20;91.00;;;;;;4205237;28;20040;-67
2021/11/18 10:07:44;;;;;;;71.70;38.30;;;30.20;91.60;;;;;;4205093;28;20536;-68
2021/11/18 10:10:10;;;;;;;54.80;30.08;;;30.00;91.70;;;;;;4207540;28;20402;-68
2021/11/18 10:12:44;;;;;;;39.65;22.00;;;30.10;91.70;;;;;;4215338;28;20447;-68
2021/11/18 10:14:59;;;;;;;95.20;53.42;;;30.00;91.60;;;;;;4191870;28;20077;-69
2021/11/18 10:17:18;;;;;;;94.22;56.83;;;30.00;91.80;;;;;;4206985;28;20051;-68
2021/11/18 10:19:34;;;;;;;134.35;81.07;;;30.00;91.90;;;;;;4191624;28;20067;-68
2021/11/18 10:21:43;;;;;;;178.23;110.80;;;30.00;91.80;;;;;;4209314;28;20043;-67
2021/11/18 10:23:51;;;;;;;169.32;108.55;;;29.90;91.90;;;;;;4207064;28;20044;-68
2021/11/18 10:26:05;;;;;;;155.50;100.80;;;29.90;92.10;;;;;;4208741;28;20040;-68
2021/11/18 10:28:21;;;;;;;135.40;90.53;;;29.90;92.10;;;;;;4172938;28;20094;-69
2021/11/18 10:30:38;;;;;;;100.18;64.93;;;29.80;92.10;;;;;;4208685;28;20060;-69
2021/11/18 10:32:53;;;;;;;84.70;54.60;;;29.80;92.00;;;;;;4207853;28;20048;-69
2021/11/18 10:35:01;;;;;;;82.32;50.30;;;29.80;92.10;;;;;;4206998;28;20062;-69
2021/11/18 10:37:17;;;;;;;108.32;56.65;;;29.80;92.00;;;;;;4205386;28;20596;-69
2021/11/18 10:39:25;;;;;;;98.03;55.50;;;29.80;91.90;;;;;;4206386;28;20056;-69
2021/11/18 10:41:33;;;;;;;100.40;58.95;;;29.80;91.90;;;;;;4205468;28;20048;-70
2021/11/18 10:43:38;;;;;;;64.18;36.55;;;29.80;91.90;;;;;;4207662;28;20039;-69
2021/11/18 10:45:45;;;;;;;54.67;28.20;;;29.80;92.10;;;;;;4207769;28;20082;-69
2021/11/18 10:47:56;;;;;;;41.63;22.50;;;29.70;92.20;;;;;;4172476;28;20045;-69
2021/11/18 10:50:09;;;;;;;32.53;16.85;;;29.70;92.30;;;;;;4207545;28;20048;-68
2021/11/18 10:52:33;;;;;;;27.50;13.05;;;29.70;92.30;;;;;;4208519;28;20162;-68
2021/11/18 10:54:43;;;;;;;33.80;12.52;;;29.70;92.40;;;;;;4206606;28;20545;-70
2021/11/18 10:56:57;;;;;;;26.98;12.73;;;29.70;92.40;;;;;;4174524;28;20071;-68
2021/11/18 10:59:15;;;;;;;30.23;13.80;;;29.60;92.40;;;;;;4189139;28;20106;-69